createdAt,value
2019-03-05T00:02:24.837Z,8.30
2019-03-05T00:04:57.502Z,8.20
2019-03-05T00:07:30.162Z,8.10
2019-03-05T00:10:03.639Z,8.10
2019-03-05T00:12:36.303Z,8.10
2019-03-05T00:15:09.882Z,8.10
2019-03-05T00:17:42.898Z,8.10
2019-03-05T00:20:15.525Z,8.00
2019-03-05T00:22:48.290Z,8.00
2019-03-05T00:25:20.991Z,8.00
2019-03-05T00:28:18.019Z,7.90
2019-03-05T00:31:08.162Z,8.00
2019-03-05T00:34:31.435Z,8.00
2019-03-05T00:37:08.950Z,8.00
2019-03-05T00:40:12.436Z,8.00
2019-03-05T00:43:06.434Z,8.10
2019-03-05T00:46:09.302Z,8.10
2019-03-05T00:49:13.961Z,8.10
2019-03-05T00:52:22.655Z,8.10
2019-03-05T00:55:13.055Z,8.20
2019-03-05T00:58:07.134Z,8.20
2019-03-05T01:01:17.994Z,8.30
2019-03-05T01:04:09.342Z,8.30
2019-03-05T01:06:41.977Z,8.40
2019-03-05T01:09:15.434Z,8.40
2019-03-05T01:11:48.077Z,8.40
2019-03-05T01:14:20.731Z,8.40
2019-03-05T01:16:53.359Z,8.30
2019-03-05T01:19:26.006Z,8.20
2019-03-05T01:21:58.635Z,8.10
2019-03-05T01:24:31.278Z,8.00
2019-03-05T01:27:03.962Z,7.90
2019-03-05T01:29:36.610Z,7.80
2019-03-05T01:32:09.238Z,7.70
2019-03-05T01:34:41.911Z,7.60
2019-03-05T01:37:14.591Z,7.50
2019-03-05T01:39:47.243Z,7.30
2019-03-05T01:42:19.875Z,7.20
2019-03-05T01:44:52.522Z,7.20
2019-03-05T01:47:25.176Z,7.10
2019-03-05T01:49:57.810Z,7.10
2019-03-05T01:52:30.486Z,7.00
2019-03-05T01:55:03.642Z,6.90
2019-03-05T01:57:36.330Z,6.80
2019-03-05T02:00:11.837Z,6.80
2019-03-05T02:02:44.376Z,6.60
2019-03-05T02:05:17.727Z,6.60
2019-03-05T02:07:50.594Z,6.60
2019-03-05T02:10:23.250Z,6.70
2019-03-05T02:12:55.901Z,6.70
2019-03-05T02:15:28.567Z,6.60
2019-03-05T02:18:01.206Z,6.60
2019-03-05T02:20:33.866Z,6.60
2019-03-05T02:23:26.830Z,6.50
2019-03-05T02:26:40.072Z,6.40
2019-03-05T02:29:54.215Z,6.40
2019-03-05T02:32:46.967Z,6.40
2019-03-05T02:35:53.768Z,6.30
2019-03-05T02:38:36.351Z,6.40
2019-03-05T02:41:40.182Z,6.40
2019-03-05T02:44:59.283Z,6.50
2019-03-05T02:47:50.963Z,6.40
2019-03-05T02:50:52.302Z,6.50
2019-03-05T02:54:12.284Z,6.40
2019-03-05T02:57:07.409Z,6.50
2019-03-05T02:59:40.083Z,6.50
2019-03-05T03:02:12.797Z,6.50
2019-03-05T03:04:45.478Z,6.50
2019-03-05T03:07:18.135Z,6.50
2019-03-05T03:10:20.179Z,6.60
2019-03-05T03:12:53.274Z,6.60
2019-03-05T03:15:25.911Z,6.70
2019-03-05T03:17:58.573Z,6.80
2019-03-05T03:20:31.203Z,6.80
2019-03-05T03:23:03.972Z,6.80
2019-03-05T03:25:36.610Z,6.90
2019-03-05T03:28:09.258Z,6.90
2019-03-05T03:30:41.904Z,7.00
2019-03-05T03:33:14.677Z,7.00
2019-03-05T03:35:47.719Z,7.10
2019-03-05T03:38:20.374Z,7.20
2019-03-05T03:40:53.045Z,7.20
2019-03-05T03:43:25.719Z,7.40
2019-03-05T03:45:58.364Z,7.50
2019-03-05T03:48:31.007Z,7.60
2019-03-05T03:51:03.661Z,7.50
2019-03-05T03:53:36.334Z,7.50
2019-03-05T03:56:08.976Z,7.40
2019-03-05T03:58:41.722Z,7.40
2019-03-05T04:01:14.347Z,7.30
2019-03-05T04:03:47.004Z,7.20
2019-03-05T04:06:19.639Z,7.10
2019-03-05T04:08:52.726Z,7.00
2019-03-05T04:11:25.391Z,6.90
2019-03-05T04:13:59.733Z,6.80
2019-03-05T04:16:32.603Z,6.70
2019-03-05T04:19:05.263Z,6.60
2019-03-05T04:21:37.895Z,6.60
2019-03-05T04:24:10.551Z,6.60
2019-03-05T04:26:43.211Z,6.60
2019-03-05T04:29:15.867Z,6.60
2019-03-05T04:31:48.515Z,6.60
2019-03-05T04:34:21.172Z,6.70
2019-03-05T04:36:53.797Z,6.70
2019-03-05T04:39:26.446Z,6.60
2019-03-05T04:41:59.095Z,6.60
2019-03-05T04:44:31.787Z,6.60
2019-03-05T04:47:04.434Z,6.60
2019-03-05T04:49:37.121Z,6.60
2019-03-05T04:52:09.810Z,6.60
2019-03-05T04:54:42.462Z,6.60
2019-03-05T04:57:15.098Z,6.60
2019-03-05T04:59:47.772Z,6.60
2019-03-05T05:02:20.427Z,6.60
2019-03-05T05:04:53.074Z,6.70
2019-03-05T05:07:25.719Z,6.70
2019-03-05T05:09:58.393Z,6.70
2019-03-05T05:12:31.022Z,6.70
2019-03-05T05:15:04.815Z,6.80
2019-03-05T05:17:37.462Z,6.90
2019-03-05T05:20:10.134Z,7.00
2019-03-05T05:22:42.782Z,7.00
2019-03-05T05:25:15.426Z,6.90
2019-03-05T05:27:48.063Z,6.90
2019-03-05T05:30:31.536Z,7.00
2019-03-05T05:33:04.278Z,7.00
2019-03-05T05:35:36.943Z,7.00
2019-03-05T05:38:09.579Z,7.00
2019-03-05T05:40:43.697Z,6.90
2019-03-05T05:43:24.658Z,6.90
2019-03-05T05:45:57.306Z,6.80
2019-03-05T05:48:29.962Z,6.80
2019-03-05T05:51:02.616Z,6.80
2019-03-05T05:53:35.298Z,6.80
2019-03-05T05:56:07.962Z,6.80
2019-03-05T05:58:40.619Z,6.80
2019-03-05T06:01:13.295Z,6.80
2019-03-05T06:03:46.087Z,6.80
2019-03-05T06:06:18.753Z,6.80
2019-03-05T06:08:51.405Z,6.80
2019-03-05T06:11:24.075Z,6.80
2019-03-05T06:13:58.188Z,6.80
2019-03-05T06:16:30.918Z,6.80
2019-03-05T06:19:03.572Z,6.80
2019-03-05T06:21:36.512Z,6.80
2019-03-05T06:24:09.167Z,6.90
2019-03-05T06:26:42.048Z,7.00
2019-03-05T06:29:14.685Z,7.00
2019-03-05T06:31:47.710Z,7.00
2019-03-05T06:34:20.383Z,6.90
2019-03-05T06:36:54.921Z,6.90
2019-03-05T06:39:27.661Z,6.80
2019-03-05T06:42:00.397Z,6.70
2019-03-05T06:44:33.063Z,6.70
2019-03-05T06:47:05.774Z,6.60
2019-03-05T06:49:38.657Z,6.60
2019-03-05T06:52:11.956Z,6.60
2019-03-05T06:54:44.806Z,6.60
2019-03-05T06:57:18.796Z,6.50
2019-03-05T06:59:51.503Z,6.50
2019-03-05T07:02:24.184Z,6.40
2019-03-05T07:04:56.901Z,6.40
2019-03-05T07:07:30.849Z,6.30
2019-03-05T07:10:29.562Z,6.30
2019-03-05T07:13:08.603Z,6.30
2019-03-05T07:16:12.162Z,6.20
2019-03-05T07:19:00.519Z,6.30
2019-03-05T07:21:58.522Z,6.20
2019-03-05T07:24:50.074Z,6.20
2019-03-05T07:27:26.434Z,6.20
2019-03-05T07:30:30.752Z,6.20
2019-03-05T07:33:03.490Z,6.20
2019-03-05T07:35:36.255Z,6.10
2019-03-05T07:38:08.900Z,6.10
2019-03-05T07:40:41.607Z,6.10
2019-03-05T07:43:14.318Z,6.10
2019-03-05T07:45:47.040Z,6.10
2019-03-05T07:48:19.711Z,6.20
2019-03-05T07:50:52.430Z,6.20
2019-03-05T07:53:25.894Z,6.30
2019-03-05T07:55:58.553Z,6.30
2019-03-05T07:58:31.218Z,6.30
2019-03-05T08:01:03.880Z,6.30
2019-03-05T08:03:37.283Z,6.30
2019-03-05T08:06:09.955Z,6.40
2019-03-05T08:09:19.242Z,6.50
2019-03-05T08:11:52.063Z,6.50
2019-03-05T08:14:57.562Z,6.60
2019-03-05T08:17:30.219Z,6.60
2019-03-05T08:20:03.702Z,6.70
2019-03-05T08:22:36.418Z,6.70
2019-03-05T08:25:09.750Z,6.70
2019-03-05T08:27:42.669Z,6.80
2019-03-05T08:30:15.548Z,6.90
2019-03-05T08:32:49.284Z,6.90
2019-03-05T08:35:21.946Z,6.90
2019-03-05T08:37:54.590Z,7.00
2019-03-05T08:40:27.251Z,7.00
2019-03-05T08:42:59.912Z,7.00
2019-03-05T08:45:32.570Z,7.00
2019-03-05T08:48:05.222Z,7.00
2019-03-05T08:50:38.157Z,7.00
2019-03-05T08:53:10.810Z,7.00
2019-03-05T08:55:43.470Z,7.00
2019-03-05T08:58:16.143Z,7.10
2019-03-05T09:00:48.804Z,7.30
2019-03-05T09:03:21.810Z,7.50
2019-03-05T09:05:54.510Z,7.60
2019-03-05T09:08:27.154Z,7.80
2019-03-05T09:11:02.413Z,7.80
2019-03-05T09:13:35.126Z,7.80
2019-03-05T09:16:07.883Z,7.70
2019-03-05T09:18:40.554Z,7.60
2019-03-05T09:21:13.255Z,7.60
2019-03-05T09:23:46.245Z,7.70
2019-03-05T09:26:18.912Z,7.90
2019-03-05T09:28:51.599Z,8.20
2019-03-05T09:31:26.582Z,8.50
2019-03-05T09:33:59.252Z,8.80
2019-03-05T09:36:31.954Z,9.00
2019-03-05T09:39:06.521Z,9.30
2019-03-05T09:41:40.175Z,9.60
2019-03-05T09:44:12.842Z,9.80
2019-03-05T09:46:45.516Z,9.80
2019-03-05T09:49:18.178Z,9.80
2019-03-05T09:51:50.842Z,9.70
2019-03-05T09:54:23.496Z,9.50
2019-03-05T09:56:56.182Z,9.40
2019-03-05T09:59:28.830Z,9.30
2019-03-05T10:02:01.543Z,9.30
2019-03-05T10:04:34.194Z,9.10
2019-03-05T10:07:06.893Z,9.00
2019-03-05T10:09:39.542Z,8.90
2019-03-05T10:12:12.242Z,8.80
2019-03-05T10:14:44.894Z,8.80
2019-03-05T10:17:17.551Z,8.80
2019-03-05T10:19:50.231Z,8.90
2019-03-05T10:22:23.273Z,8.90
2019-03-05T10:25:05.594Z,9.00
2019-03-05T10:27:30.330Z,9.00
2019-03-05T10:30:05.683Z,9.10
2019-03-05T10:32:38.338Z,9.30
2019-03-05T10:35:10.995Z,9.40
2019-03-05T10:37:43.635Z,9.60
2019-03-05T10:40:16.367Z,9.70
2019-03-05T10:42:49.028Z,9.90
2019-03-05T10:45:21.714Z,10.00
2019-03-05T10:47:54.408Z,10.20
2019-03-05T10:50:27.257Z,10.40
2019-03-05T10:52:59.918Z,10.50
2019-03-05T10:55:32.594Z,10.50
2019-03-05T10:58:05.244Z,10.60
2019-03-05T11:00:40.421Z,10.70
2019-03-05T11:03:13.102Z,10.70
2019-03-05T11:05:45.758Z,10.80
2019-03-05T11:08:20.232Z,10.70
2019-03-05T11:10:52.913Z,10.70
2019-03-05T11:13:25.665Z,10.70
2019-03-05T11:15:58.299Z,10.80
2019-03-05T11:18:31.293Z,10.90
2019-03-05T11:21:04.765Z,11.00
2019-03-05T11:23:37.454Z,11.10
2019-03-05T11:26:10.108Z,11.20
2019-03-05T11:28:43.549Z,11.20
2019-03-05T11:31:17.411Z,11.20
2019-03-05T11:33:50.063Z,11.20
2019-03-05T11:36:23.002Z,11.20
2019-03-05T11:38:55.656Z,11.20
2019-03-05T11:41:29.037Z,11.10
2019-03-05T11:44:01.702Z,11.10
2019-03-05T11:46:34.725Z,11.00
2019-03-05T11:49:07.387Z,11.00
2019-03-05T11:51:40.045Z,10.90
2019-03-05T11:54:12.969Z,10.90
2019-03-05T11:56:45.646Z,10.90
2019-03-05T11:59:18.319Z,10.90
2019-03-05T12:01:50.972Z,11.10
2019-03-05T12:04:23.640Z,11.20
2019-03-05T12:06:56.314Z,11.40
2019-03-05T12:09:28.973Z,11.40
2019-03-05T12:12:01.613Z,11.40
2019-03-05T12:14:34.303Z,11.40
2019-03-05T12:17:07.014Z,11.60
2019-03-05T12:19:39.678Z,11.80
2019-03-05T12:22:12.352Z,12.00
2019-03-05T12:24:45.024Z,12.10
2019-03-05T12:27:18.348Z,12.10
2019-03-05T12:29:50.995Z,12.10
2019-03-05T12:32:23.647Z,12.00
2019-03-05T12:34:56.290Z,11.90
2019-03-05T12:37:29.264Z,11.90
2019-03-05T12:40:01.934Z,11.90
2019-03-05T12:42:34.627Z,11.70
2019-03-05T12:45:07.829Z,11.50
2019-03-05T12:47:40.508Z,11.40
2019-03-05T12:50:15.262Z,11.40
2019-03-05T12:52:48.186Z,11.50
2019-03-05T12:55:21.047Z,11.50
2019-03-05T12:57:53.712Z,11.60
2019-03-05T13:00:26.378Z,11.70
2019-03-05T13:03:00.355Z,11.70
2019-03-05T13:05:33.037Z,11.70
2019-03-05T13:08:05.717Z,11.70
2019-03-05T13:10:38.406Z,11.70
2019-03-05T13:13:14.040Z,11.80
2019-03-05T13:15:46.735Z,11.90
2019-03-05T13:18:19.394Z,11.90
2019-03-05T13:20:52.080Z,11.80
2019-03-05T13:23:24.735Z,11.80
2019-03-05T13:25:57.391Z,11.70
2019-03-05T13:28:30.098Z,11.70
2019-03-05T13:31:05.031Z,11.70
2019-03-05T13:33:37.972Z,11.80
2019-03-05T13:36:12.466Z,12.00
2019-03-05T13:38:46.439Z,12.10
2019-03-05T13:41:19.182Z,12.20
2019-03-05T13:43:52.164Z,12.20
2019-03-05T13:46:29.650Z,12.20
2019-03-05T13:49:41.190Z,12.30
2019-03-05T13:52:42.299Z,12.30
2019-03-05T13:55:27.924Z,12.30
2019-03-05T13:58:25.983Z,12.30
2019-03-05T14:00:58.643Z,12.40
2019-03-05T14:03:48.681Z,12.40
2019-03-05T14:07:02.671Z,12.40
2019-03-05T14:09:35.096Z,12.30
2019-03-05T14:12:07.766Z,12.30
2019-03-05T14:14:40.437Z,12.30
2019-03-05T14:17:13.166Z,12.30
2019-03-05T14:19:45.848Z,12.30
2019-03-05T14:22:37.959Z,12.20
2019-03-05T14:25:11.833Z,12.30
2019-03-05T14:27:44.531Z,12.20
2019-03-05T14:30:20.776Z,12.00
2019-03-05T14:32:52.659Z,12.00
2019-03-05T14:35:27.775Z,12.10
2019-03-05T14:38:00.921Z,12.00
2019-03-05T14:40:33.643Z,12.00
2019-03-05T14:43:06.389Z,11.90
2019-03-05T14:45:40.324Z,12.00
2019-03-05T14:48:13.036Z,11.90
2019-03-05T14:50:45.752Z,11.90
2019-03-05T14:53:19.349Z,11.90
2019-03-05T14:55:54.493Z,11.80
2019-03-05T14:58:26.532Z,11.80
2019-03-05T15:01:10.012Z,11.60
2019-03-05T15:03:34.035Z,11.50
2019-03-05T15:06:06.704Z,11.40
2019-03-05T15:08:39.396Z,11.40
2019-03-05T15:11:12.032Z,11.40
2019-03-05T15:13:44.702Z,11.40
2019-03-05T15:16:17.400Z,11.40
2019-03-05T15:18:50.255Z,11.30
2019-03-05T15:21:22.897Z,11.30
2019-03-05T15:23:55.623Z,11.20
2019-03-05T15:26:28.320Z,11.20
2019-03-05T15:29:01.061Z,11.10
2019-03-05T15:31:33.830Z,11.10
2019-03-05T15:34:06.531Z,11.00
2019-03-05T15:36:39.237Z,11.00
2019-03-05T15:39:11.930Z,10.90
2019-03-05T15:41:46.024Z,10.90
2019-03-05T15:44:19.195Z,10.90
2019-03-05T15:46:52.359Z,10.90
2019-03-05T15:49:25.089Z,10.80
2019-03-05T15:51:57.766Z,10.80
2019-03-05T15:54:30.485Z,10.70
2019-03-05T15:57:03.514Z,10.70
2019-03-05T15:59:36.255Z,10.70
2019-03-05T16:02:09.032Z,10.60
2019-03-05T16:04:43.720Z,10.60
2019-03-05T16:07:16.080Z,10.60
2019-03-05T16:09:50.851Z,10.60
2019-03-05T16:12:23.890Z,10.60
2019-03-05T16:14:56.626Z,10.60
2019-03-05T16:17:29.701Z,10.60
2019-03-05T16:20:02.863Z,10.60
2019-03-05T16:22:35.506Z,10.60
2019-03-05T16:25:10.015Z,10.50
2019-03-05T16:27:44.101Z,10.50
2019-03-05T16:30:18.571Z,10.40
2019-03-05T16:32:51.219Z,10.30
2019-03-05T16:35:24.254Z,10.20
2019-03-05T16:37:57.829Z,10.10
2019-03-05T16:40:30.858Z,10.00
2019-03-05T16:43:03.510Z,9.90
2019-03-05T16:45:36.179Z,9.80
2019-03-05T16:48:09.304Z,9.80
2019-03-05T16:50:43.036Z,9.80
2019-03-05T16:53:15.672Z,9.80
2019-03-05T16:55:49.902Z,9.70
2019-03-05T16:58:22.565Z,9.60
2019-03-05T17:00:55.233Z,9.50
2019-03-05T17:03:28.119Z,9.40
2019-03-05T17:06:00.798Z,9.40
2019-03-05T17:08:33.447Z,9.30
2019-03-05T17:11:06.098Z,9.20
2019-03-05T17:13:38.764Z,9.20
2019-03-05T17:16:11.462Z,9.10
2019-03-05T17:18:44.374Z,9.10
2019-03-05T17:21:26.813Z,9.00
2019-03-05T17:23:51.674Z,8.90
2019-03-05T17:26:24.322Z,8.80
2019-03-05T17:28:57.023Z,8.80
2019-03-05T17:31:29.723Z,8.70
2019-03-05T17:34:02.399Z,8.60
2019-03-05T17:36:35.058Z,8.50
2019-03-05T17:39:10.384Z,8.50
2019-03-05T17:41:43.450Z,8.40
2019-03-05T17:44:16.166Z,8.40
2019-03-05T17:46:49.251Z,8.40
2019-03-05T17:49:21.891Z,8.40
2019-03-05T17:51:55.375Z,8.40
2019-03-05T17:54:28.022Z,8.30
2019-03-05T17:57:00.712Z,8.30
2019-03-05T17:59:33.347Z,8.20
2019-03-05T18:02:05.999Z,8.20
2019-03-05T18:04:38.635Z,8.10
2019-03-05T18:07:11.358Z,8.10
2019-03-05T18:09:44.018Z,8.10
2019-03-05T18:12:16.742Z,8.10
2019-03-05T18:14:49.396Z,8.10
2019-03-05T18:17:22.074Z,8.10
2019-03-05T18:19:54.743Z,8.00
2019-03-05T18:22:27.437Z,8.00
2019-03-05T18:25:00.179Z,8.00
2019-03-05T18:27:33.118Z,7.90
2019-03-05T18:30:09.072Z,8.00
2019-03-05T18:32:41.753Z,8.00
2019-03-05T18:35:14.739Z,8.10
2019-03-05T18:37:48.750Z,8.10
2019-03-05T18:40:21.442Z,8.20
2019-03-05T18:42:55.105Z,8.10
2019-03-05T18:45:28.143Z,8.20
2019-03-05T18:48:00.830Z,8.20
2019-03-05T18:50:33.497Z,8.20
2019-03-05T18:53:06.156Z,8.20
2019-03-05T18:55:38.807Z,8.10
2019-03-05T18:58:11.474Z,8.10
2019-03-05T19:00:44.113Z,8.10
2019-03-05T19:03:16.813Z,8.10
2019-03-05T19:05:51.844Z,8.00
2019-03-05T19:08:24.511Z,8.00
2019-03-05T19:10:57.435Z,7.90
2019-03-05T19:13:30.136Z,7.90
2019-03-05T19:16:02.806Z,7.80
2019-03-05T19:18:35.487Z,7.80
2019-03-05T19:21:08.122Z,7.70
2019-03-05T19:23:40.790Z,7.70
2019-03-05T19:26:14.940Z,7.70
2019-03-05T19:28:47.627Z,7.70
2019-03-05T19:31:20.252Z,7.70
2019-03-05T19:33:53.248Z,7.60
2019-03-05T19:36:25.902Z,7.60
2019-03-05T19:38:58.683Z,7.60
2019-03-05T19:41:31.330Z,7.50
2019-03-05T19:44:04.066Z,7.50
2019-03-05T19:46:36.711Z,7.50
2019-03-05T19:49:09.378Z,7.40
2019-03-05T19:51:42.084Z,7.40
2019-03-05T19:54:14.798Z,7.40
2019-03-05T19:56:47.491Z,7.30
2019-03-05T19:59:20.145Z,7.30
2019-03-05T20:01:52.787Z,7.30
2019-03-05T20:04:26.226Z,7.30
2019-03-05T20:06:58.895Z,7.30
2019-03-05T20:09:31.615Z,7.30
2019-03-05T20:12:04.271Z,7.30
2019-03-05T20:14:36.980Z,7.20
2019-03-05T20:17:09.640Z,7.20
2019-03-05T20:19:42.420Z,7.10
2019-03-05T20:22:15.108Z,7.10
2019-03-05T20:24:47.844Z,7.00
2019-03-05T20:27:20.475Z,7.00
2019-03-05T20:29:53.203Z,7.00
2019-03-05T20:32:25.851Z,7.00
2019-03-05T20:34:58.656Z,7.00
2019-03-05T20:37:31.379Z,6.90
2019-03-05T20:40:05.534Z,6.90
2019-03-05T20:42:38.495Z,6.80
2019-03-05T20:45:13.983Z,6.80
2019-03-05T20:47:46.694Z,6.80
2019-03-05T20:50:19.378Z,6.80
2019-03-05T20:52:52.428Z,6.80
2019-03-05T20:55:25.173Z,6.70
2019-03-05T20:57:57.913Z,6.70
2019-03-05T21:00:30.832Z,6.70
2019-03-05T21:03:03.897Z,6.70
2019-03-05T21:05:38.517Z,6.70
2019-03-05T21:08:11.160Z,6.70
2019-03-05T21:10:43.926Z,6.70
2019-03-05T21:13:16.598Z,6.60
2019-03-05T21:15:49.470Z,6.60
2019-03-05T21:18:22.138Z,6.60
2019-03-05T21:20:54.830Z,6.60
2019-03-05T21:23:27.495Z,6.60
2019-03-05T21:26:01.132Z,6.60
2019-03-05T21:28:33.788Z,6.60
2019-03-05T21:31:06.425Z,6.60
2019-03-05T21:33:39.151Z,6.60
2019-03-05T21:36:11.899Z,6.60
2019-03-05T21:38:44.628Z,6.70
2019-03-05T21:41:17.363Z,6.70
2019-03-05T21:43:50.055Z,6.70
2019-03-05T21:46:22.714Z,6.70
2019-03-05T21:48:55.460Z,6.70
2019-03-05T21:51:28.978Z,6.70
2019-03-05T21:54:01.759Z,6.70
2019-03-05T21:56:34.501Z,6.70
2019-03-05T21:59:07.192Z,6.70
2019-03-05T22:01:40.058Z,6.70
2019-03-05T22:04:12.906Z,6.70
2019-03-05T22:06:45.579Z,6.70
2019-03-05T22:09:18.261Z,6.80
2019-03-05T22:11:51.891Z,6.80
2019-03-05T22:14:24.562Z,6.80
2019-03-05T22:16:57.266Z,6.80
2019-03-05T22:19:29.903Z,6.90
2019-03-05T22:22:02.658Z,6.90
2019-03-05T22:24:35.456Z,6.90
2019-03-05T22:27:08.249Z,6.90
2019-03-05T22:29:40.931Z,7.00
2019-03-05T22:32:13.607Z,7.00
2019-03-05T22:34:46.265Z,7.10
2019-03-05T22:37:18.914Z,7.10
2019-03-05T22:39:51.550Z,7.10
2019-03-05T22:42:24.226Z,7.20
2019-03-05T22:44:58.174Z,7.20
2019-03-05T22:47:31.414Z,7.20
2019-03-05T22:50:05.011Z,7.20
2019-03-05T22:52:37.698Z,7.20
2019-03-05T22:55:10.571Z,7.20
2019-03-05T22:57:43.291Z,7.20
2019-03-05T23:00:34.572Z,7.30
2019-03-05T23:03:07.323Z,7.30
2019-03-05T23:05:40.049Z,7.30
2019-03-05T23:08:13.013Z,7.30
2019-03-05T23:10:45.675Z,7.40
2019-03-05T23:13:18.328Z,7.40
2019-03-05T23:15:51.031Z,7.40
2019-03-05T23:18:23.688Z,7.40
2019-03-05T23:20:56.321Z,7.40
2019-03-05T23:23:28.974Z,7.40
2019-03-05T23:26:01.614Z,7.40
2019-03-05T23:28:34.282Z,7.40
2019-03-05T23:31:07.675Z,7.50
2019-03-05T23:33:40.366Z,7.50
2019-03-05T23:36:12.982Z,7.50
2019-03-05T23:38:45.985Z,7.50
2019-03-05T23:41:18.638Z,7.50
2019-03-05T23:43:51.299Z,7.50
2019-03-05T23:46:23.955Z,7.50
2019-03-05T23:48:56.602Z,7.60
2019-03-05T23:51:29.250Z,7.60
2019-03-05T23:54:01.947Z,7.50
2019-03-05T23:56:34.603Z,7.60
2019-03-05T23:59:07.307Z,7.60
